Time;durP1;ratioP1;P1;durP2;ratioP2;P2;SDS_P1;SDS_P2;PMS_P1;PMS_P2;Temp;Humidity;BMP_temperature;BMP_pressure;BME280_temperature;BME280_humidity;BME280_pressure;Samples;Min_cycle;Max_cycle;Signal;HPM_P1;HPM_P2
2022/11/20 00:02:24;;;;;;;31.33;5.43;;;;;;;21.23;64.11;99054.25;7317788;19;128940;-38
2022/11/20 00:04:49;;;;;;;36.83;5.32;;;;;;;21.17;64.46;99055.66;7315741;19;130557;-39
2022/11/20 00:07:14;;;;;;;25.50;5.20;;;;;;;21.17;64.27;99058.25;7315562;19;129175;-36
2022/11/20 00:09:40;;;;;;;32.35;5.50;;;;;;;21.13;63.96;99054.31;7316527;19;129494;-38
2022/11/20 00:12:05;;;;;;;27.77;5.35;;;;;;;21.04;64.22;99034.28;7317200;19;128937;-38
2022/11/20 00:14:31;;;;;;;25.67;5.10;;;;;;;21.08;64.19;99055.72;7311967;19;130167;-40
2022/11/20 00:16:56;;;;;;;28.15;5.30;;;;;;;20.99;64.58;99031.31;7313721;19;129592;-38
2022/11/20 00:19:21;;;;;;;32.97;5.35;;;;;;;21.00;64.97;99038.19;7314671;19;129282;-39
2022/11/20 00:21:47;;;;;;;31.58;5.57;;;;;;;21.01;65.19;99039.81;7315580;19;129582;-38
2022/11/20 00:24:12;;;;;;;20.80;4.83;;;;;;;21.08;64.92;99045.28;7314709;19;128942;-37
2022/11/20 00:26:38;;;;;;;26.40;5.10;;;;;;;21.10;64.73;99054.63;7310678;19;131045;-38
2022/11/20 00:29:03;;;;;;;30.05;5.30;;;;;;;21.13;64.80;99053.50;7315446;19;129102;-37
2022/11/20 00:31:30;;;;;;;35.15;6.00;;;;;;;21.17;63.90;99050.41;7313887;19;129955;-37
2022/11/20 00:33:55;;;;;;;69.55;7.93;;;;;;;21.26;63.79;99057.38;7311616;19;130368;-39
2022/11/20 00:36:23;;;;;;;35.85;5.65;;;;;;;21.43;63.29;99053.09;7312233;19;129102;-39
2022/11/20 00:38:57;;;;;;;35.65;6.10;;;;;;;21.48;62.94;99054.31;7309134;19;130120;-38
2022/11/20 00:41:23;;;;;;;21.27;5.00;;;;;;;21.65;62.58;99057.84;7314375;19;129142;-37
2022/11/20 00:43:50;;;;;;;55.92;6.70;;;;;;;21.62;62.53;99061.59;7313607;19;130165;-37
2022/11/20 00:46:18;;;;;;;23.73;4.85;;;;;;;21.63;62.95;99067.66;7313870;19;130722;-38
2022/11/20 00:48:44;;;;;;;29.88;5.45;;;;;;;21.64;62.71;99064.03;7315370;19;129638;-39
2022/11/20 00:51:12;;;;;;;29.20;4.88;;;;;;;21.60;62.76;99068.75;7314984;19;129162;-38
2022/11/20 00:53:38;;;;;;;23.90;5.30;;;;;;;21.56;62.64;99066.59;7314945;19;130223;-36
2022/11/20 00:56:06;;;;;;;26.98;4.90;;;;;;;21.55;63.09;99071.00;7311855;19;130355;-35
2022/11/20 00:58:36;;;;;;;27.38;5.25;;;;;;;21.49;62.87;99071.63;7313600;19;129814;-37
2022/11/20 01:01:11;;;;;;;26.50;5.05;;;;;;;21.33;63.24;99054.97;7314446;19;130430;-36
2022/11/20 01:03:43;;;;;;;38.25;6.18;;;;;;;21.37;62.92;99072.81;7314328;19;130348;-36
2022/11/20 01:06:19;;;;;;;22.83;5.00;;;;;;;21.36;63.77;99071.19;7310453;19;129723;-37
2022/11/20 01:08:46;;;;;;;18.63;4.20;;;;;;;21.28;63.27;99063.28;7314672;19;129169;-39
2022/11/20 01:11:26;;;;;;;27.92;5.13;;;;;;;21.29;63.61;99072.75;7315048;19;129146;-38
2022/11/20 01:13:52;;;;;;;68.88;8.07;;;;;;;21.22;64.33;99069.09;7312752;19;129508;-37
2022/11/20 01:16:29;;;;;;;41.17;5.97;;;;;;;21.14;63.70;99071.63;7307852;19;131566;-39
2022/11/20 01:18:57;;;;;;;20.60;4.43;;;;;;;21.12;63.92;99068.34;7315067;19;129337;-36
2022/11/20 01:21:28;;;;;;;38.25;6.07;;;;;;;21.17;64.44;99062.69;7312805;19;130772;-35
2022/11/20 01:23:54;;;;;;;26.17;5.07;;;;;;;21.21;63.90;99067.47;7314302;19;130332;-40
2022/11/20 01:26:23;;;;;;;32.72;5.38;;;;;;;21.24;63.63;99069.78;7312162;19;129647;-37
2022/11/20 01:28:49;;;;;;;58.38;6.95;;;;;;;21.33;63.64;99053.19;7314116;19;129037;-38
2022/11/20 01:31:21;;;;;;;56.50;7.68;;;;;;;21.36;63.54;99065.97;7311418;19;130769;-39
2022/11/20 01:33:49;;;;;;;72.53;8.68;;;;;;;21.44;62.93;99063.41;7312252;19;132862;-37
2022/11/20 01:36:15;;;;;;;43.58;6.68;;;;;;;21.67;63.01;99061.13;7309807;19;130547;-37
2022/11/20 01:38:41;;;;;;;30.88;5.25;;;;;;;21.72;62.59;99062.31;7313329;19;129063;-37
2022/11/20 01:41:08;;;;;;;54.45;7.32;;;;;;;21.78;62.12;99059.09;7313791;19;130267;-35
2022/11/20 01:43:34;;;;;;;25.05;5.18;;;;;;;21.78;62.42;99051.25;7314088;19;129695;-38
2022/11/20 01:46:02;;;;;;;29.87;5.20;;;;;;;21.75;62.17;99055.97;7309575;19;131392;-39
2022/11/20 01:49:00;;;;;;;29.67;5.20;;;;;;;21.69;62.59;99057.38;7311824;19;128822;-40
2022/11/20 01:51:26;;;;;;;46.50;6.65;;;;;;;21.69;62.75;99048.72;7314003;19;129360;-39
2022/11/20 01:53:56;;;;;;;59.38;7.20;;;;;;;21.64;62.19;99043.94;7313776;19;129441;-38
2022/11/20 01:56:23;;;;;;;33.67;5.03;;;;;;;21.58;62.98;99043.75;7311214;19;130594;-39
2022/11/20 01:58:53;;;;;;;9.27;4.15;;;;;;;21.53;62.84;99038.97;7312380;19;130323;-38
2022/11/20 02:01:21;;;;;;;40.78;6.13;;;;;;;21.51;63.27;99037.47;7311795;19;129167;-39
2022/11/20 02:03:47;;;;;;;45.08;6.35;;;;;;;21.43;63.11;99035.63;7312211;19;130190;-36
2022/11/20 02:06:25;;;;;;;27.63;4.70;;;;;;;21.33;63.33;99031.44;7310380;19;129507;-35
2022/11/20 02:08:52;;;;;;;28.85;4.95;;;;;;;21.29;63.98;99028.31;7312044;19;129136;-38
2022/11/20 02:11:18;;;;;;;29.65;5.20;;;;;;;21.25;63.74;99032.22;7309198;19;129049;-37
2022/11/20 02:13:44;;;;;;;39.27;5.90;;;;;;;21.21;63.34;99038.72;7311763;19;129233;-36
2022/11/20 02:16:26;;;;;;;32.50;5.20;;;;;;;21.21;63.85;99035.25;7310998;19;129731;-37
2022/11/20 02:18:54;;;;;;;30.45;5.28;;;;;;;21.24;63.90;99041.00;7311255;19;129079;-37
2022/11/20 02:21:32;;;;;;;73.03;8.63;;;;;;;21.26;63.40;99033.84;7311154;19;130734;-38
2022/11/20 02:24:03;;;;;;;57.28;7.75;;;;;;;21.42;63.25;99031.34;7310803;19;129523;-38
2022/11/20 02:26:32;;;;;;;21.58;4.68;;;;;;;21.48;62.90;99033.38;7308882;19;130345;-37
2022/11/20 02:29:00;;;;;;;32.58;5.15;;;;;;;21.59;62.55;99033.13;7310500;19;129861;-39
2022/11/20 02:31:26;;;;;;;25.45;4.85;;;;;;;21.68;62.37;99034.81;7310509;19;129286;-39
2022/11/20 02:33:57;;;;;;;40.70;6.32;;;;;;;21.74;62.17;99021.13;7310422;19;129442;-34
2022/11/20 02:36:26;;;;;;;53.72;6.95;;;;;;;21.84;62.00;99029.72;7308812;19;129174;-37
2022/11/20 02:38:51;;;;;;;25.27;4.82;;;;;;;21.88;61.79;99031.03;7312783;19;129043;-37
2022/11/20 02:41:17;;;;;;;23.55;4.55;;;;;;;21.86;62.06;99027.78;7312231;19;129737;-38
2022/11/20 02:43:42;;;;;;;40.33;5.90;;;;;;;21.86;61.60;99027.78;7310090;19;129722;-39
2022/11/20 02:46:08;;;;;;;23.45;4.78;;;;;;;21.83;61.92;99022.81;7309905;19;130589;-38
2022/11/20 02:48:33;;;;;;;44.73;6.27;;;;;;;21.80;62.18;99017.91;7310768;19;130457;-36
2022/11/20 02:50:59;;;;;;;30.20;4.95;;;;;;;21.74;62.69;99022.91;7312432;19;129922;-39
2022/11/20 02:53:24;;;;;;;24.00;5.20;;;;;;;21.69;62.43;99030.41;7312228;19;129535;-36
2022/11/20 02:55:49;;;;;;;22.73;4.90;;;;;;;21.63;62.69;99020.56;7308959;19;130000;-39
2022/11/20 02:58:15;;;;;;;66.93;8.43;;;;;;;21.55;62.71;99029.16;7310678;19;129465;-38
2022/11/20 03:00:40;;;;;;;38.03;6.53;;;;;;;21.50;62.88;99026.19;7308818;19;129292;-36
2022/11/20 03:03:06;;;;;;;48.90;6.57;;;;;;;21.46;62.86;99024.84;7311959;19;130159;-35
2022/11/20 03:05:31;;;;;;;14.90;4.63;;;;;;;21.46;63.27;99024.84;7310145;19;130911;-40
2022/11/20 03:07:56;;;;;;;23.48;4.65;;;;;;;21.42;63.35;99020.91;7312572;19;129156;-36
2022/11/20 03:10:22;;;;;;;32.80;5.90;;;;;;;21.44;63.29;99016.34;7308308;19;129184;-37
2022/11/20 03:12:47;;;;;;;31.08;5.40;;;;;;;21.54;62.46;99017.06;7310960;19;129691;-36
2022/11/20 03:15:12;;;;;;;52.55;6.88;;;;;;;21.50;63.08;99013.09;7309494;19;130559;-38
2022/11/20 03:17:38;;;;;;;31.27;5.28;;;;;;;21.58;63.19;99012.34;7310425;19;129634;-38
2022/11/20 03:20:04;;;;;;;22.38;4.82;;;;;;;21.68;62.09;99007.84;7309807;19;130412;-37
2022/11/20 03:22:30;;;;;;;48.63;6.95;;;;;;;21.79;61.78;99000.59;7309911;19;130203;-36
2022/11/20 03:24:55;;;;;;;38.08;6.15;;;;;;;21.87;61.51;99003.25;7313786;19;130259;-39
2022/11/20 03:27:20;;;;;;;26.80;4.68;;;;;;;21.87;61.29;98998.00;7315558;19;129290;-37
2022/11/20 03:29:46;;;;;;;13.77;4.15;;;;;;;21.93;61.37;98996.56;7315263;19;130617;-36
2022/11/20 03:32:11;;;;;;;38.07;6.00;;;;;;;21.86;61.43;98991.16;7316393;19;130266;-39
2022/11/20 03:34:36;;;;;;;44.28;6.20;;;;;;;21.86;61.45;98993.75;7315864;19;129544;-38
2022/11/20 03:37:02;;;;;;;39.42;5.60;;;;;;;21.82;62.14;98995.03;7313421;19;130736;-39
2022/11/20 03:39:27;;;;;;;11.63;4.18;;;;;;;21.77;61.81;98999.91;7316175;19;129002;-35
2022/11/20 03:41:53;;;;;;;39.42;6.22;;;;;;;21.72;62.35;98994.28;7316765;19;129495;-39
2022/11/20 03:44:21;;;;;;;29.25;5.05;;;;;;;21.67;62.63;98993.94;7313251;19;130373;-36
2022/11/20 03:46:46;;;;;;;40.47;5.97;;;;;;;21.59;62.58;98996.50;7313432;19;129458;-38
2022/11/20 03:49:11;;;;;;;63.67;8.02;;;;;;;21.55;62.86;99003.00;7315393;19;129111;-37
2022/11/20 03:51:37;;;;;;;60.33;7.38;;;;;;;21.51;62.74;99003.47;7314675;19;129462;-38
2022/11/20 03:54:05;;;;;;;53.97;6.97;;;;;;;21.43;62.84;99004.25;7315007;19;129905;-37
2022/11/20 03:56:35;;;;;;;39.28;5.70;;;;;;;21.43;63.57;99008.66;7314032;19;129068;-39
2022/11/20 03:59:01;;;;;;;40.15;5.82;;;;;;;21.50;63.47;99014.91;7317747;19;128891;-39
2022/11/20 04:01:32;;;;;;;13.93;4.07;;;;;;;21.56;62.55;99009.91;7317159;19;129736;-36
2022/11/20 04:03:58;;;;;;;77.43;9.07;;;;;;;21.69;62.59;99001.63;7315098;19;129564;-38
2022/11/20 04:06:26;;;;;;;20.90;4.70;;;;;;;21.82;62.32;99000.25;7313478;19;129163;-39
2022/11/20 04:08:55;;;;;;;5.03;3.63;;;;;;;22.00;61.29;99000.19;7317251;19;128884;-39
2022/11/20 04:11:23;;;;;;;32.58;5.60;;;;;;;22.14;61.08;98999.59;7313921;19;130504;-37
2022/11/20 04:13:51;;;;;;;38.88;5.93;;;;;;;22.21;60.69;98992.78;7316324;19;129633;-38
2022/11/20 04:16:17;;;;;;;27.38;5.10;;;;;;;22.30;60.58;98988.34;7314656;19;128834;-37
2022/11/20 04:18:43;;;;;;;18.23;4.43;;;;;;;22.36;60.73;98988.53;7317176;19;128990;-38
2022/11/20 04:21:10;;;;;;;20.73;4.75;;;;;;;22.39;60.23;98982.19;7316690;19;130168;-36
2022/11/20 04:23:35;;;;;;;24.05;4.85;;;;;;;22.47;60.17;98974.34;7314758;19;130426;-38
2022/11/20 04:26:08;;;;;;;30.98;5.38;;;;;;;22.45;60.08;98981.53;7310929;19;128995;-38
2022/11/20 04:28:34;;;;;;;23.77;4.60;;;;;;;22.44;59.50;98980.72;7317349;19;128863;-38
2022/11/20 04:31:12;;;;;;;21.13;4.40;;;;;;;22.39;59.74;98972.53;7316098;19;129429;-37
2022/11/20 04:33:38;;;;;;;26.35;4.88;;;;;;;22.27;60.60;98970.34;7311985;19;130277;-38
2022/11/20 04:36:11;;;;;;;22.47;4.97;;;;;;;22.25;60.13;98967.06;7312284;19;130865;-38
2022/11/20 04:38:36;;;;;;;27.30;5.03;;;;;;;22.19;60.54;98970.31;7314942;19;129686;-39
2022/11/20 04:41:04;;;;;;;24.17;4.75;;;;;;;22.04;61.28;98953.56;7315467;19;129012;-35
2022/11/20 04:43:30;;;;;;;37.40;5.70;;;;;;;22.01;61.18;98956.50;7314465;19;130468;-35
2022/11/20 04:45:56;;;;;;;25.23;5.45;;;;;;;21.91;61.08;98962.69;7312445;19;129582;-39
2022/11/20 04:48:22;;;;;;;30.08;5.15;;;;;;;21.83;61.74;98960.03;7314223;19;128862;-38
2022/11/20 04:50:48;;;;;;;30.57;5.40;;;;;;;21.77;62.29;98959.84;7313498;19;130758;-37
2022/11/20 04:53:13;;;;;;;85.43;9.20;;;;;;;21.70;62.32;98964.84;7309130;19;130265;-36
2022/11/20 04:55:39;;;;;;;23.02;4.80;;;;;;;21.59;62.47;98967.72;7309845;19;130104;-36
2022/11/20 04:58:04;;;;;;;21.35;4.78;;;;;;;21.55;62.26;98966.38;7314751;19;130107;-37
2022/11/20 05:00:30;;;;;;;40.77;5.83;;;;;;;21.50;62.78;98973.88;7314062;19;130189;-37
2022/11/20 05:02:55;;;;;;;24.77;5.07;;;;;;;21.44;63.33;98981.50;7314681;19;129268;-39
2022/11/20 05:05:20;;;;;;;33.67;6.03;;;;;;;21.35;62.99;98978.03;7311996;19;129038;-35
2022/11/20 05:07:46;;;;;;;47.28;6.68;;;;;;;21.28;62.96;98979.63;7310616;19;131698;-38
2022/11/20 05:10:11;;;;;;;47.33;6.57;;;;;;;21.27;63.59;98975.34;7314348;19;130691;-39
2022/11/20 05:12:36;;;;;;;29.88;5.10;;;;;;;21.24;63.73;98975.66;7313996;19;129839;-38
2022/11/20 05:15:02;;;;;;;65.33;7.67;;;;;;;21.15;63.79;98967.91;7312629;19;129617;-35
2022/11/20 05:17:27;;;;;;;24.75;5.07;;;;;;;21.22;64.22;98976.78;7310843;19;130217;-37
2022/11/20 05:19:53;;;;;;;52.53;7.28;;;;;;;21.16;63.91;98975.59;7312784;19;129538;-36
2022/11/20 05:22:18;;;;;;;35.53;5.32;;;;;;;21.20;64.47;98974.34;7310192;19;130655;-39
2022/11/20 05:24:43;;;;;;;29.13;4.80;;;;;;;21.17;64.46;98973.81;7313860;19;130038;-39
2022/11/20 05:27:08;;;;;;;26.70;4.90;;;;;;;21.13;65.07;98975.91;7310869;19;129237;-39
2022/11/20 05:29:34;;;;;;;30.27;5.17;;;;;;;21.14;64.73;98977.53;7314220;19;129025;-40
2022/11/20 05:31:59;;;;;;;24.42;5.53;;;;;;;21.08;64.49;98975.53;7312862;19;129064;-37
2022/11/20 05:34:25;;;;;;;60.00;7.55;;;;;;;21.09;64.75;98974.56;7310286;19;128998;-35
2022/11/20 05:36:50;;;;;;;28.17;4.90;;;;;;;21.09;64.72;98974.56;7310124;19;129259;-35
2022/11/20 05:39:15;;;;;;;30.88;5.32;;;;;;;21.07;65.45;98967.84;7313011;19;131092;-37
2022/11/20 05:41:41;;;;;;;26.35;5.15;;;;;;;21.06;65.06;98960.97;7312869;19;131080;-39
2022/11/20 05:44:06;;;;;;;28.75;4.95;;;;;;;21.09;64.89;98964.09;7312743;19;128804;-38
2022/11/20 05:46:31;;;;;;;234.77;20.27;;;;;;;21.10;65.09;98965.75;7306602;19;129582;-38
2022/11/20 05:48:57;;;;;;;31.00;5.55;;;;;;;21.01;64.93;98964.03;7310795;19;130222;-38
2022/11/20 05:51:23;;;;;;;22.33;4.90;;;;;;;21.04;64.92;98966.34;7311553;19;131006;-37
2022/11/20 05:53:49;;;;;;;71.03;8.67;;;;;;;21.01;65.04;98956.19;7311909;19;129348;-39
2022/11/20 05:56:19;;;;;;;46.15;6.32;;;;;;;21.04;64.58;98963.72;7310709;19;130722;-37
2022/11/20 05:58:45;;;;;;;41.42;5.90;;;;;;;20.98;64.85;98942.63;7313082;19;130178;-37
2022/11/20 06:01:22;;;;;;;34.33;5.57;;;;;;;21.07;64.30;98945.16;7313578;19;129261;-34
2022/11/20 06:03:50;;;;;;;67.15;8.23;;;;;;;21.19;63.82;98958.81;7311716;19;129086;-38
2022/11/20 06:06:16;;;;;;;25.85;5.20;;;;;;;21.22;63.61;98953.28;7310090;19;129980;-37
2022/11/20 06:08:42;;;;;;;18.00;4.45;;;;;;;21.31;63.46;98952.34;7311928;19;130877;-38
2022/11/20 06:11:11;;;;;;;51.25;6.97;;;;;;;21.28;63.36;98945.63;7311524;19;131550;-37
2022/11/20 06:13:36;;;;;;;9.13;4.05;;;;;;;21.34;63.38;98952.03;7312849;19;128931;-38
2022/11/20 06:16:02;;;;;;;48.13;6.72;;;;;;;21.34;62.96;98952.84;7308841;19;128959;-39
2022/11/20 06:18:28;;;;;;;41.88;6.13;;;;;;;21.40;62.94;98957.47;7312858;19;130691;-36
2022/11/20 06:21:09;;;;;;;42.63;6.00;;;;;;;21.42;63.13;98945.06;7312375;19;129443;-39
2022/11/20 06:23:35;;;;;;;32.88;5.05;;;;;;;21.43;62.91;98941.50;7311370;19;130459;-37
2022/11/20 06:26:28;;;;;;;34.00;5.40;;;;;;;21.47;63.12;98942.81;7306855;19;129911;-39
2022/11/20 06:28:55;;;;;;;49.28;6.90;;;;;;;21.53;62.83;98936.97;7310214;19;129607;-39
2022/11/20 06:31:23;;;;;;;14.57;4.95;;;;;;;21.54;62.36;98924.69;7312060;19;129925;-39
2022/11/20 06:33:50;;;;;;;46.22;6.43;;;;;;;21.57;62.42;98932.22;7309622;19;130315;-39
2022/11/20 06:36:19;;;;;;;24.17;5.03;;;;;;;21.51;62.16;98920.59;7308860;19;128886;-37
2022/11/20 06:38:44;;;;;;;28.73;5.13;;;;;;;21.67;62.51;98938.16;7309078;19;128973;-36
2022/11/20 06:41:15;;;;;;;54.78;6.97;;;;;;;21.71;62.49;98939.50;7307637;19;130472;-39
2022/11/20 06:43:42;;;;;;;37.15;5.95;;;;;;;21.76;62.07;98943.34;7309084;19;130642;-38
2022/11/20 06:46:10;;;;;;;48.80;6.33;;;;;;;21.74;62.49;98945.25;7308433;19;129038;-37
2022/11/20 06:48:35;;;;;;;27.52;5.10;;;;;;;21.75;61.65;98941.66;7310620;19;131287;-36
2022/11/20 06:51:04;;;;;;;32.63;5.63;;;;;;;21.75;61.59;98938.22;7309665;19;130256;-35
2022/11/20 06:53:29;;;;;;;26.20;4.63;;;;;;;21.79;62.15;98935.16;7309018;19;129490;-39
2022/11/20 06:55:57;;;;;;;46.33;6.47;;;;;;;21.79;62.23;98937.78;7306164;19;129573;-37
2022/11/20 06:58:25;;;;;;;56.38;7.10;;;;;;;21.82;61.38;98936.63;7310144;19;131238;-39
2022/11/20 07:00:50;;;;;;;36.70;5.55;;;;;;;21.78;62.11;98928.28;7317491;19;129792;-38
2022/11/20 07:03:16;;;;;;;40.38;5.72;;;;;;;21.77;61.48;98931.88;7316586;19;128740;-37
2022/11/20 07:05:41;;;;;;;28.13;5.67;;;;;;;21.76;61.69;98925.03;7315570;19;130302;-39
2022/11/20 07:08:07;;;;;;;38.05;6.80;;;;;;;21.63;61.56;98906.28;7314331;19;130857;-37
2022/11/20 07:10:33;;;;;;;35.95;6.30;;;;;;;21.69;61.83;98929.19;7316593;19;129046;-38
2022/11/20 07:12:59;;;;;;;38.23;6.57;;;;;;;21.69;61.65;98934.44;7316622;19;129087;-39
2022/11/20 07:15:25;;;;;;;40.83;6.33;;;;;;;21.64;62.18;98926.22;7315946;19;129751;-39
2022/11/20 07:17:51;;;;;;;31.50;6.20;;;;;;;21.66;62.28;98928.69;7315178;19;130133;-38
2022/11/20 07:20:16;;;;;;;31.00;6.13;;;;;;;21.68;62.13;98929.34;7315605;19;130103;-39
2022/11/20 07:22:42;;;;;;;47.53;6.80;;;;;;;21.57;61.84;98912.13;7316066;19;129279;-36
2022/11/20 07:25:09;;;;;;;79.07;9.27;;;;;;;21.66;61.97;98928.69;7309649;19;130284;-38
2022/11/20 07:27:34;;;;;;;39.45;6.72;;;;;;;21.63;61.74;98932.44;7313478;19;129939;-39
2022/11/20 07:30:00;;;;;;;56.80;8.03;;;;;;;21.52;62.00;98903.94;7306670;19;129992;-38
2022/11/20 07:32:25;;;;;;;67.43;8.85;;;;;;;21.68;61.81;98922.31;7311495;19;130505;-37
2022/11/20 07:34:51;;;;;;;21.77;5.30;;;;;;;21.63;62.04;98916.75;7306129;19;130290;-37
2022/11/20 07:37:16;;;;;;;45.47;7.13;;;;;;;21.71;61.96;98936.88;7307751;19;130835;-37
2022/11/20 07:39:42;;;;;;;68.43;8.80;;;;;;;21.73;61.93;98933.13;7308108;19;130665;-36
2022/11/20 07:42:08;;;;;;;5.00;4.55;;;;;;;21.69;61.30;98944.06;7313281;19;130087;-36
2022/11/20 07:44:33;;;;;;;78.60;9.33;;;;;;;21.75;61.82;98923.31;7307786;19;130790;-36
2022/11/20 07:46:59;;;;;;;37.25;6.18;;;;;;;21.75;62.10;98923.31;7309892;19;130441;-37
2022/11/20 07:49:24;;;;;;;17.45;5.40;;;;;;;21.73;61.92;98921.84;7315253;19;129719;-37
2022/11/20 07:51:55;;;;;;;43.17;7.73;;;;;;;21.74;61.40;98924.31;7315756;19;129138;-39
2022/11/20 07:54:21;;;;;;;39.67;6.47;;;;;;;21.75;61.23;98927.75;7312925;19;130216;-38
2022/11/20 07:56:48;;;;;;;34.90;6.07;;;;;;;21.73;61.32;98922.66;7312869;19;129508;-36
2022/11/20 07:59:14;;;;;;;73.97;9.65;;;;;;;21.69;62.00;98896.97;7311970;19;131119;-37
2022/11/20 08:01:40;;;;;;;64.80;9.20;;;;;;;21.77;61.69;98924.03;7314976;19;131108;-38
2022/11/20 08:04:06;;;;;;;119.50;11.90;;;;;;;21.67;61.47;98898.91;7303769;19;130441;-38
2022/11/20 08:06:31;;;;;;;54.80;8.13;;;;;;;21.73;61.97;98912.19;7304762;19;131988;-37
2022/11/20 08:08:57;;;;;;;69.03;8.60;;;;;;;21.68;61.72;98904.00;7306119;19;130645;-37
2022/11/20 08:14:12;;;;;;;28.70;6.15;;;;;;;21.63;61.46;98900.22;7315459;19;129356;-36
2022/11/20 08:16:41;;;;;;;42.35;7.13;;;;;;;21.68;61.48;98914.47;7307775;19;129150;-36
2022/11/20 08:19:06;;;;;;;31.27;5.75;;;;;;;21.73;61.74;98927.88;7316756;19;131721;-36
2022/11/20 08:21:32;;;;;;;25.42;5.20;;;;;;;21.72;61.82;98910.56;7316653;19;129557;-37
2022/11/20 08:23:58;;;;;;;39.13;6.70;;;;;;;21.68;61.48;98897.97;7312541;19;130303;-36
2022/11/20 08:26:24;;;;;;;35.42;6.30;;;;;;;21.64;61.96;98891.41;7311206;19;130320;-37
2022/11/20 08:28:53;;;;;;;47.63;7.38;;;;;;;21.73;61.32;98912.19;7312664;19;132104;-37
2022/11/20 08:31:19;;;;;;;42.10;7.30;;;;;;;21.72;62.01;98910.56;7313601;19;130147;-39
2022/11/20 08:33:44;;;;;;;44.22;7.25;;;;;;;21.79;61.29;98909.00;7313396;19;129599;-37
2022/11/20 08:36:10;;;;;;;85.13;9.27;;;;;;;21.77;61.40;98908.34;7312103;19;129199;-36
2022/11/20 08:38:35;;;;;;;22.38;5.20;;;;;;;21.78;61.89;98917.00;7307107;19;130473;-37
2022/11/20 08:43:47;;;;;;;48.83;7.35;;;;;;;21.75;61.67;98910.25;7314860;19;129828;-38
2022/11/20 08:46:12;;;;;;;35.40;6.55;;;;;;;21.74;61.47;98911.25;7311477;19;129198;-36
2022/11/20 08:48:38;;;;;;;59.03;8.63;;;;;;;21.73;60.24;98912.19;7312511;19;130048;-37
2022/11/20 08:51:03;;;;;;;51.55;8.35;;;;;;;21.73;60.40;98906.97;7315224;19;130233;-37
2022/11/20 08:53:29;;;;;;;14.85;5.70;;;;;;;21.71;60.23;98906.31;7315216;19;129874;-36
2022/11/20 08:55:56;;;;;;;36.27;6.93;;;;;;;21.71;60.57;98903.72;7310891;19;130891;-38
2022/11/20 08:58:21;;;;;;;32.85;6.85;;;;;;;21.71;60.40;98903.72;7314892;19;131179;-35
2022/11/20 09:00:47;;;;;;;30.02;6.30;;;;;;;21.73;60.79;98901.72;7304238;19;129847;-36
2022/11/20 09:03:13;;;;;;;43.22;7.78;;;;;;;21.74;60.50;98898.16;7312693;19;130872;-35
2022/11/20 09:05:39;;;;;;;38.67;6.83;;;;;;;21.73;60.83;98885.22;7306383;19;131209;-35
2022/11/20 09:08:04;;;;;;;70.03;9.17;;;;;;;21.67;60.47;98868.34;7311499;19;129577;-38
2022/11/20 09:10:30;;;;;;;30.23;6.60;;;;;;;21.77;61.38;98879.56;7308099;19;131707;-37
2022/11/20 09:12:55;;;;;;;32.47;6.47;;;;;;;21.80;60.94;98871.38;7313349;19;130932;-36
2022/11/20 09:15:21;;;;;;;34.38;6.78;;;;;;;21.76;60.97;98871.84;7308689;19;130235;-37
2022/11/20 09:17:53;;;;;;;26.87;6.07;;;;;;;21.75;60.98;98876.22;7311168;19;129396;-38
2022/11/20 09:20:19;;;;;;;40.45;6.88;;;;;;;21.64;61.04;98852.97;7312695;19;130701;-36
2022/11/20 09:22:44;;;;;;;45.25;7.30;;;;;;;21.75;61.33;98871.00;7313902;19;129755;-36
2022/11/20 09:25:10;;;;;;;38.10;6.37;;;;;;;21.75;61.57;98873.63;7312379;19;129784;-37
2022/11/20 09:27:35;;;;;;;41.42;7.00;;;;;;;21.77;61.83;98869.09;7309273;19;129314;-37
2022/11/20 09:30:01;;;;;;;28.40;5.82;;;;;;;21.69;61.19;98855.94;7312838;19;131827;-37
2022/11/20 09:32:26;;;;;;;35.50;6.43;;;;;;;21.80;61.13;98881.84;7315113;19;129758;-37
2022/11/20 09:34:52;;;;;;;53.75;7.80;;;;;;;21.82;61.74;98874.66;7305704;19;130071;-36
2022/11/20 09:37:17;;;;;;;38.00;6.55;;;;;;;21.82;61.67;98877.28;7310179;19;130942;-37
2022/11/20 09:39:43;;;;;;;33.00;6.35;;;;;;;21.81;62.16;98882.69;7312241;19;129415;-37
2022/11/20 09:42:30;;;;;;;39.90;6.28;;;;;;;21.69;61.23;98862.97;7312506;19;129069;-38
2022/11/20 09:45:08;;;;;;;58.63;7.57;;;;;;;21.77;61.54;98871.69;7306895;19;131728;-37
2022/11/20 09:47:47;;;;;;;40.97;7.30;;;;;;;21.78;62.15;98878.56;7313267;19;130428;-37
2022/11/20 09:50:32;;;;;;;46.58;7.32;;;;;;;21.70;61.63;98849.72;7311798;19;129189;-35
2022/11/20 09:53:00;;;;;;;;;;;;;;;21.78;62.12;98868.09;7311217;19;129272;-38
2022/11/20 09:55:29;;;;;;;92.47;10.43;;;;;;;21.83;61.63;98860.59;7307884;19;129167;-35
2022/11/20 09:57:55;;;;;;;25.17;5.40;;;;;;;21.82;62.06;98858.97;7311732;19;130261;-36
2022/11/20 10:00:21;;;;;;;;;;;;;;;21.78;61.87;98856.84;7312943;19;130345;-37
2022/11/20 10:02:55;;;;;;;39.88;6.43;;;;;;;21.80;62.33;98855.69;7312453;19;129906;-38
2022/11/20 10:05:28;;;;;;;38.13;6.85;;;;;;;21.75;61.48;98844.03;7307062;19;129698;-37
2022/11/20 10:07:56;;;;;;;31.05;5.82;;;;;;;21.80;61.56;98850.44;7313156;19;129628;-37
2022/11/20 10:10:37;;;;;;;30.73;5.47;;;;;;;21.78;61.61;98857.63;7310163;19;129252;-39
2022/11/20 10:13:24;;;;;;;32.53;6.10;;;;;;;21.79;61.79;98858.47;7312769;19;129582;-38
2022/11/20 10:16:01;;;;;;;51.73;7.30;;;;;;;21.71;61.63;98829.63;7305481;19;130673;-37
2022/11/20 10:18:45;;;;;;;32.92;6.05;;;;;;;21.83;61.98;98852.75;7311816;19;129876;-38
2022/11/20 10:21:35;;;;;;;40.00;6.47;;;;;;;21.82;61.89;98848.50;7308084;19;129281;-37
2022/11/20 10:24:19;;;;;;;40.03;6.68;;;;;;;21.80;61.63;98845.22;7311094;19;130165;-36
2022/11/20 10:26:58;;;;;;;34.03;6.13;;;;;;;21.80;62.38;98844.38;7303437;19;129529;-37
2022/11/20 10:29:33;;;;;;;17.63;5.47;;;;;;;21.68;62.13;98819.47;7309236;19;129920;-32
2022/11/20 10:32:02;;;;;;;33.45;5.50;;;;;;;21.77;62.39;98835.06;7305764;19;131746;-35
2022/11/20 10:34:45;;;;;;;34.35;6.20;;;;;;;21.78;61.89;98831.47;7317061;19;129417;-35
2022/11/20 10:37:21;;;;;;;36.95;5.88;;;;;;;21.83;61.62;98823.97;7308429;19;131832;-33
2022/11/20 10:40:01;;;;;;;34.05;5.97;;;;;;;21.82;62.11;98834.59;7318107;19;130509;-37
2022/11/20 10:42:37;;;;;;;38.65;6.00;;;;;;;21.81;62.15;98831.16;7312565;19;129486;-34
2022/11/20 10:45:38;;;;;;;29.35;5.45;;;;;;;21.78;62.02;98836.69;7317833;19;129334;-34
2022/11/20 10:48:19;;;;;;;23.40;5.00;;;;;;;21.81;62.14;98823.31;7315510;19;130815;-33
2022/11/20 10:51:17;;;;;;;36.95;5.70;;;;;;;21.79;62.15;98829.69;7317854;19;129333;-32
2022/11/20 10:54:20;;;;;;;33.97;5.88;;;;;;;21.79;62.08;98832.28;7310803;19;129802;-35
2022/11/20 10:56:51;;;;;;;27.77;5.07;;;;;;;21.71;62.00;98817.38;7313601;19;129312;-34
2022/11/20 10:59:51;;;;;;;154.40;13.75;;;;;;;21.79;61.88;98827.06;7313145;19;130551;-39
2022/11/20 11:02:20;;;;;;;25.90;5.57;;;;;;;21.78;62.50;98828.84;7316534;19;129262;-37
2022/11/20 11:04:49;;;;;;;116.05;11.00;;;;;;;21.75;62.53;98825.72;7311622;19;128833;-36
2022/11/20 11:07:17;;;;;;;39.60;6.15;;;;;;;21.79;62.26;98824.44;7309814;19;130460;-37
2022/11/20 11:09:47;;;;;;;13.32;4.43;;;;;;;21.76;62.19;98845.66;7318237;19;130154;-36
2022/11/20 11:12:13;;;;;;;83.90;10.70;;;;;;;21.65;60.50;98804.91;7307588;19;129371;-35
2022/11/20 11:14:45;;;;;;;39.53;7.03;;;;;;;21.65;61.07;98798.88;7316146;19;129077;-37
2022/11/20 11:17:29;;;;;;;47.03;7.38;;;;;;;21.73;61.77;98811.97;7309468;19;130092;-36
2022/11/20 11:20:21;;;;;;;44.00;6.68;;;;;;;21.78;62.04;98805.31;7316776;19;129496;-38
2022/11/20 11:22:52;;;;;;;39.75;7.18;;;;;;;21.77;61.73;98806.28;7310017;19;131948;-38
2022/11/20 11:25:28;;;;;;;66.40;8.90;;;;;;;21.78;61.58;98800.06;7314338;19;129335;-37
2022/11/20 11:27:56;;;;;;;41.63;7.13;;;;;;;21.74;62.23;98788.28;7307864;19;130330;-38
2022/11/20 11:30:22;;;;;;;26.08;5.93;;;;;;;21.76;61.71;98794.19;7318510;19;132014;-37